Time;durP1;ratioP1;P1;durP2;ratioP2;P2;SDS_P1;SDS_P2;PMS_P1;PMS_P2;Temp;Humidity;BMP_temperature;BMP_pressure;BME280_temperature;BME280_humidity;BME280_pressure;Samples;Min_cycle;Max_cycle;Signal;HPM_P1;HPM_P2
2023/12/20 00:02:22;;;;;;;18.98;4.90;;;6.80;95.70;;;;;;5002768;28;20067;-71
2023/12/20 00:04:48;;;;;;;21.67;5.20;;;6.80;95.70;;;;;;4998449;28;20049;-70
2023/12/20 00:07:13;;;;;;;14.52;5.03;;;6.70;95.80;;;;;;5000378;28;20030;-71
2023/12/20 00:09:39;;;;;;;15.50;5.13;;;6.70;95.80;;;;;;5004607;28;20065;-70
2023/12/20 00:12:05;;;;;;;16.48;4.82;;;6.80;95.90;;;;;;4998692;28;20038;-70
2023/12/20 00:14:31;;;;;;;14.80;5.25;;;6.80;95.80;;;;;;5003113;28;20026;-71
2023/12/20 00:16:56;;;;;;;16.27;5.03;;;6.80;95.80;;;;;;5003704;28;20541;-72
2023/12/20 00:19:22;;;;;;;13.98;5.00;;;6.70;95.80;;;;;;5014389;28;20061;-70
2023/12/20 00:21:48;;;;;;;13.40;4.55;;;6.70;95.80;;;;;;4975666;28;20125;-71
2023/12/20 00:24:13;;;;;;;14.90;4.50;;;6.70;95.70;;;;;;5006233;28;20483;-71
2023/12/20 00:26:39;;;;;;;14.27;4.70;;;6.60;95.70;;;;;;5003059;28;20038;-71
2023/12/20 00:29:04;;;;;;;15.65;4.78;;;6.70;95.80;;;;;;4997950;28;20045;-71
2023/12/20 00:31:30;;;;;;;15.52;4.95;;;6.60;95.70;;;;;;5002168;28;20034;-70
2023/12/20 00:33:56;;;;;;;14.95;4.78;;;6.60;95.70;;;;;;5013427;28;20061;-71
2023/12/20 00:36:21;;;;;;;14.82;4.80;;;6.60;95.70;;;;;;5004508;28;20037;-71
2023/12/20 00:38:48;;;;;;;15.48;4.68;;;6.60;95.70;;;;;;5004600;28;20537;-71
2023/12/20 00:41:13;;;;;;;19.63;5.80;;;6.60;95.70;;;;;;5002755;28;20475;-71
2023/12/20 00:43:39;;;;;;;14.90;5.15;;;6.50;95.70;;;;;;4987161;28;20068;-71
2023/12/20 00:46:05;;;;;;;12.60;5.00;;;6.40;95.80;;;;;;5003574;28;20041;-71
2023/12/20 00:48:31;;;;;;;18.08;5.28;;;6.40;95.80;;;;;;5003685;28;20042;-71
2023/12/20 00:50:57;;;;;;;17.50;5.75;;;6.40;95.90;;;;;;4998141;28;20551;-71
2023/12/20 00:53:23;;;;;;;18.52;5.50;;;6.40;96.10;;;;;;4997889;28;20022;-71
2023/12/20 00:55:50;;;;;;;17.58;5.85;;;6.40;96.00;;;;;;4984297;28;20035;-72
2023/12/20 00:58:15;;;;;;;15.77;5.55;;;6.40;96.10;;;;;;5003634;28;20471;-71
2023/12/20 01:00:42;;;;;;;15.85;5.45;;;6.40;96.20;;;;;;4997570;28;20045;-73
2023/12/20 01:03:08;;;;;;;18.63;5.55;;;6.40;96.20;;;;;;5003841;28;20033;-71
2023/12/20 01:05:34;;;;;;;19.05;5.78;;;6.40;96.30;;;;;;5004355;28;20045;-71
2023/12/20 01:07:59;;;;;;;17.90;5.95;;;6.40;96.30;;;;;;4996346;28;20040;-71
2023/12/20 01:10:28;;;;;;;15.43;5.60;;;6.40;96.20;;;;;;5005406;28;20034;-73
2023/12/20 01:12:53;;;;;;;17.95;5.72;;;6.40;96.20;;;;;;5010353;28;20745;-70
2023/12/20 01:15:19;;;;;;;18.80;6.82;;;6.40;96.20;;;;;;5017980;28;20101;-72
2023/12/20 01:17:45;;;;;;;17.33;6.57;;;6.40;96.20;;;;;;5007147;28;20042;-71
2023/12/20 01:20:11;;;;;;;18.77;6.25;;;6.40;96.20;;;;;;5008191;28;20062;-71
2023/12/20 01:22:36;;;;;;;17.80;5.60;;;6.40;96.30;;;;;;5011419;28;20081;-71
2023/12/20 01:25:02;;;;;;;23.95;6.43;;;6.40;96.30;;;;;;5005896;28;20065;-71
2023/12/20 01:27:28;;;;;;;15.65;5.53;;;6.40;96.40;;;;;;5018584;28;20045;-70
2023/12/20 01:29:54;;;;;;;16.23;5.55;;;6.50;96.50;;;;;;4995156;28;20430;-71
2023/12/20 01:32:20;;;;;;;17.08;6.28;;;6.50;96.40;;;;;;5003434;28;20034;-71
2023/12/20 01:34:45;;;;;;;17.48;5.45;;;6.50;96.50;;;;;;5001640;28;20781;-71
2023/12/20 01:37:11;;;;;;;16.48;5.38;;;6.50;96.40;;;;;;5004500;28;20034;-71
2023/12/20 01:39:36;;;;;;;25.38;5.70;;;6.60;96.30;;;;;;5007091;28;20103;-71
2023/12/20 01:42:02;;;;;;;16.98;5.47;;;6.60;96.20;;;;;;4999248;28;20042;-71
2023/12/20 01:44:28;;;;;;;14.18;4.90;;;6.60;96.20;;;;;;4991206;28;20018;-71
2023/12/20 01:46:54;;;;;;;19.63;5.72;;;6.60;96.10;;;;;;5008309;28;20496;-70
2023/12/20 01:49:20;;;;;;;16.58;4.35;;;6.60;96.00;;;;;;5006358;28;20029;-70
2023/12/20 01:51:46;;;;;;;18.90;5.85;;;6.70;96.10;;;;;;4998759;28;20050;-71
2023/12/20 01:54:13;;;;;;;17.60;5.40;;;6.70;95.90;;;;;;5001526;28;20018;-70
2023/12/20 01:56:39;;;;;;;20.83;5.10;;;6.70;95.90;;;;;;4999886;28;20064;-70
2023/12/20 01:59:07;;;;;;;20.27;6.57;;;6.70;95.90;;;;;;5009430;28;20041;-70
2023/12/20 02:01:33;;;;;;;26.40;5.90;;;6.70;95.80;;;;;;4984917;28;20637;-69
2023/12/20 02:04:00;;;;;;;14.95;4.95;;;6.70;95.70;;;;;;5004147;28;20026;-70
2023/12/20 02:06:31;;;;;;;15.90;5.05;;;6.80;95.70;;;;;;5000077;28;20120;-71
2023/12/20 02:08:57;;;;;;;19.65;5.97;;;6.80;95.50;;;;;;5001175;28;20045;-70
2023/12/20 02:11:24;;;;;;;19.10;5.40;;;6.70;95.40;;;;;;5004258;28;20053;-70
2023/12/20 02:13:50;;;;;;;16.40;5.32;;;6.70;95.30;;;;;;5001994;28;20018;-70
2023/12/20 02:16:16;;;;;;;14.48;5.50;;;6.80;95.30;;;;;;5007834;28;20108;-70
2023/12/20 02:18:44;;;;;;;18.52;5.40;;;6.80;95.10;;;;;;4999677;28;20069;-72
2023/12/20 02:21:10;;;;;;;18.52;4.88;;;6.70;95.00;;;;;;4999829;28;20132;-70
2023/12/20 02:23:35;;;;;;;16.73;4.88;;;6.70;94.90;;;;;;5000816;28;20121;-71
2023/12/20 02:26:01;;;;;;;20.00;4.55;;;6.70;95.00;;;;;;5008778;28;20037;-71
2023/12/20 02:28:28;;;;;;;18.30;5.53;;;6.70;95.00;;;;;;5003793;28;20034;-70
2023/12/20 02:30:53;;;;;;;16.77;4.72;;;6.60;95.10;;;;;;5001006;28;20498;-70
2023/12/20 02:33:19;;;;;;;17.52;4.18;;;6.60;95.10;;;;;;5006372;28;20046;-71
2023/12/20 02:35:45;;;;;;;13.00;4.80;;;6.60;95.10;;;;;;5012708;28;20038;-71
2023/12/20 02:38:10;;;;;;;20.23;5.15;;;6.60;95.10;;;;;;5004484;28;20529;-72
2023/12/20 02:40:36;;;;;;;15.35;4.65;;;6.60;95.10;;;;;;5004512;28;20057;-71
2023/12/20 02:43:02;;;;;;;16.20;4.93;;;6.60;95.20;;;;;;5005926;28;20042;-70
2023/12/20 02:45:27;;;;;;;15.82;5.22;;;6.50;95.30;;;;;;4995774;28;20034;-70
2023/12/20 02:47:53;;;;;;;14.50;4.28;;;6.50;95.20;;;;;;4999502;28;20050;-71
2023/12/20 02:50:19;;;;;;;15.60;4.50;;;6.50;95.00;;;;;;4990475;28;20034;-72
2023/12/20 02:52:47;;;;;;;15.68;4.78;;;6.40;94.90;;;;;;4997668;28;20034;-70
2023/12/20 02:55:13;;;;;;;17.17;5.25;;;6.40;95.20;;;;;;5005699;28;20430;-70
2023/12/20 02:57:41;;;;;;;18.27;5.20;;;6.40;95.20;;;;;;5000998;28;20048;-71
2023/12/20 03:00:09;;;;;;;20.10;5.25;;;6.30;95.30;;;;;;5006337;28;20037;-71
2023/12/20 03:02:34;;;;;;;18.73;5.35;;;6.30;95.30;;;;;;5000020;28;20026;-69
2023/12/20 03:05:00;;;;;;;15.85;5.07;;;6.20;95.40;;;;;;4996086;28;20033;-71
2023/12/20 03:07:26;;;;;;;18.02;5.47;;;6.20;95.50;;;;;;5004995;28;20026;-70
2023/12/20 03:09:51;;;;;;;21.58;5.13;;;6.10;95.40;;;;;;5003338;28;20549;-71
2023/12/20 03:12:17;;;;;;;18.05;4.80;;;6.10;95.50;;;;;;4996231;28;20030;-71
2023/12/20 03:14:44;;;;;;;24.98;5.53;;;6.10;95.50;;;;;;5004194;28;20057;-71
2023/12/20 03:17:10;;;;;;;18.50;5.38;;;6.10;95.70;;;;;;5003284;28;20037;-71
2023/12/20 03:19:35;;;;;;;22.73;4.93;;;6.00;95.80;;;;;;5013442;28;20654;-73
2023/12/20 03:22:01;;;;;;;17.42;4.97;;;6.00;95.90;;;;;;5007426;28;20058;-72
2023/12/20 03:24:27;;;;;;;17.27;4.85;;;5.90;95.90;;;;;;5005647;28;20388;-72
2023/12/20 03:26:53;;;;;;;18.13;5.35;;;5.90;96.00;;;;;;5003726;28;20032;-71
2023/12/20 03:29:18;;;;;;;15.60;5.15;;;5.90;96.00;;;;;;5004423;28;20025;-71
2023/12/20 03:31:45;;;;;;;18.85;5.13;;;5.90;96.00;;;;;;5008636;28;20038;-71
2023/12/20 03:34:11;;;;;;;19.35;4.75;;;5.80;95.90;;;;;;4993612;28;20021;-71
2023/12/20 03:36:36;;;;;;;19.33;5.72;;;5.80;95.90;;;;;;5003446;28;20030;-71
2023/12/20 03:39:02;;;;;;;14.75;4.70;;;5.70;96.00;;;;;;5002003;28;20046;-70
2023/12/20 03:41:28;;;;;;;16.63;5.07;;;5.70;96.10;;;;;;5003217;28;20022;-70
2023/12/20 03:43:54;;;;;;;17.73;4.90;;;5.70;96.10;;;;;;4999487;28;20041;-71
2023/12/20 03:46:19;;;;;;;17.08;5.13;;;5.70;96.30;;;;;;5006681;28;20463;-71
2023/12/20 03:48:45;;;;;;;19.23;5.10;;;5.70;96.30;;;;;;4996997;28;20044;-71
2023/12/20 03:51:11;;;;;;;17.27;5.85;;;5.80;96.30;;;;;;5003632;28;20052;-71
2023/12/20 03:53:37;;;;;;;22.10;5.78;;;5.70;96.30;;;;;;5000643;28;20072;-70
2023/12/20 03:56:02;;;;;;;19.60;5.63;;;5.80;96.30;;;;;;4983208;28;20053;-72
2023/12/20 03:58:28;;;;;;;16.75;6.10;;;5.90;96.40;;;;;;5000500;28;20038;-71
2023/12/20 04:00:53;;;;;;;19.58;5.40;;;5.80;96.40;;;;;;4998740;28;20487;-71
2023/12/20 04:03:19;;;;;;;17.75;5.47;;;5.90;96.40;;;;;;5003266;28;20022;-71
2023/12/20 04:05:45;;;;;;;18.92;5.50;;;5.90;96.40;;;;;;4997505;28;20034;-71
2023/12/20 04:08:11;;;;;;;21.75;6.05;;;5.90;96.30;;;;;;5004658;28;20032;-72
2023/12/20 04:10:37;;;;;;;22.67;5.38;;;5.90;96.30;;;;;;5004477;28;20037;-71
2023/12/20 04:13:03;;;;;;;19.10;5.78;;;5.80;96.30;;;;;;5004941;28;20788;-71
2023/12/20 04:15:29;;;;;;;21.15;5.05;;;5.80;96.40;;;;;;5008129;28;20072;-72
2023/12/20 04:17:54;;;;;;;20.85;5.65;;;5.80;96.50;;;;;;5003748;28;20073;-71
2023/12/20 04:20:20;;;;;;;23.02;5.82;;;5.80;96.40;;;;;;5000554;28;20033;-72
2023/12/20 04:22:45;;;;;;;14.93;5.60;;;5.80;96.50;;;;;;4996600;28;20157;-71
2023/12/20 04:25:11;;;;;;;21.45;5.50;;;5.80;96.50;;;;;;5003625;28;20030;-71
2023/12/20 04:27:37;;;;;;;22.92;6.30;;;5.80;96.60;;;;;;4999969;28;20072;-70
2023/12/20 04:30:03;;;;;;;19.25;4.95;;;5.90;96.60;;;;;;4992832;28;20399;-70
2023/12/20 04:32:29;;;;;;;17.35;5.35;;;5.80;96.50;;;;;;5000276;28;20402;-70
2023/12/20 04:34:55;;;;;;;23.02;5.10;;;5.80;96.40;;;;;;5010614;28;20037;-71
2023/12/20 04:37:20;;;;;;;21.20;4.93;;;5.80;96.30;;;;;;4999182;28;20049;-71
2023/12/20 04:39:46;;;;;;;19.30;5.95;;;5.80;96.40;;;;;;5003524;28;20078;-72
2023/12/20 04:42:11;;;;;;;16.38;5.53;;;5.80;96.30;;;;;;5003191;28;20030;-71
2023/12/20 04:44:37;;;;;;;21.60;6.10;;;5.70;96.40;;;;;;4997387;28;21018;-71
2023/12/20 04:47:03;;;;;;;18.58;5.07;;;5.70;96.40;;;;;;5003026;28;20096;-71
2023/12/20 04:49:28;;;;;;;16.25;4.88;;;5.60;96.40;;;;;;5003132;28;20030;-72
2023/12/20 04:51:55;;;;;;;17.77;5.40;;;5.60;96.50;;;;;;5004285;28;20113;-71
2023/12/20 04:54:21;;;;;;;19.85;5.00;;;5.60;96.50;;;;;;5004008;28;20083;-70
2023/12/20 04:56:47;;;;;;;19.30;5.75;;;5.60;96.60;;;;;;4995856;28;20072;-71
2023/12/20 04:59:13;;;;;;;18.45;5.10;;;5.50;96.60;;;;;;5003679;28;20029;-71
2023/12/20 05:01:39;;;;;;;14.27;4.57;;;5.60;96.70;;;;;;4979506;28;20034;-71
2023/12/20 05:04:05;;;;;;;20.50;4.80;;;5.50;96.70;;;;;;4987116;28;20493;-72
2023/12/20 05:06:30;;;;;;;22.20;5.88;;;5.50;96.70;;;;;;4997310;28;20557;-70
2023/12/20 05:08:56;;;;;;;17.92;4.53;;;5.50;96.70;;;;;;4997304;28;20038;-70
2023/12/20 05:11:21;;;;;;;16.45;5.90;;;5.40;96.70;;;;;;5000658;28;20532;-70
2023/12/20 05:13:47;;;;;;;17.77;5.13;;;5.50;96.80;;;;;;4999801;28;20030;-70
2023/12/20 05:16:14;;;;;;;20.15;5.47;;;5.40;96.80;;;;;;4979898;28;20122;-70
2023/12/20 05:18:40;;;;;;;25.77;6.30;;;5.40;96.90;;;;;;4989814;28;20533;-72
2023/12/20 05:21:06;;;;;;;14.82;5.50;;;5.50;96.90;;;;;;4983506;28;20042;-71
2023/12/20 05:23:32;;;;;;;16.63;5.15;;;5.50;96.90;;;;;;4998385;28;20124;-71
2023/12/20 05:25:58;;;;;;;18.80;6.15;;;5.60;96.80;;;;;;5003640;28;20570;-70
2023/12/20 05:28:24;;;;;;;17.17;4.75;;;5.60;96.80;;;;;;4999924;28;20037;-69
2023/12/20 05:30:50;;;;;;;19.52;4.78;;;5.60;96.60;;;;;;5000952;28;20096;-70
2023/12/20 05:33:15;;;;;;;17.02;5.40;;;5.60;96.60;;;;;;5004001;28;20429;-70
2023/12/20 05:35:41;;;;;;;21.40;5.38;;;5.60;96.60;;;;;;5013712;28;20034;-72
2023/12/20 05:38:06;;;;;;;23.17;5.72;;;5.60;96.60;;;;;;4983031;28;20475;-70
2023/12/20 05:40:32;;;;;;;16.65;5.22;;;5.60;96.70;;;;;;5001513;28;20048;-70
2023/12/20 05:42:58;;;;;;;19.77;4.55;;;5.70;96.70;;;;;;5000340;28;20807;-71
2023/12/20 05:45:23;;;;;;;15.10;4.57;;;5.70;96.70;;;;;;4999233;28;20762;-71
2023/12/20 05:47:49;;;;;;;16.73;5.10;;;5.80;96.60;;;;;;5001469;28;20050;-72
2023/12/20 05:50:15;;;;;;;15.75;4.70;;;5.80;96.60;;;;;;5003849;28;20046;-71
2023/12/20 05:52:41;;;;;;;20.70;4.75;;;5.90;96.50;;;;;;5000540;28;20061;-71
2023/12/20 05:55:06;;;;;;;20.48;5.22;;;5.80;96.40;;;;;;5005187;28;20058;-71
2023/12/20 05:57:32;;;;;;;21.92;5.10;;;5.80;96.40;;;;;;5005893;28;20121;-72
2023/12/20 05:59:58;;;;;;;17.73;4.50;;;5.70;96.30;;;;;;4998617;28;20050;-71
2023/12/20 06:02:23;;;;;;;16.42;4.07;;;5.60;96.40;;;;;;5000844;28;20465;-71
2023/12/20 06:04:49;;;;;;;17.85;5.15;;;5.70;96.40;;;;;;5005335;28;20058;-71
2023/12/20 06:07:15;;;;;;;18.42;5.45;;;5.60;96.40;;;;;;5005681;28;20394;-72
2023/12/20 06:09:41;;;;;;;19.33;5.05;;;5.60;96.40;;;;;;5005673;28;20446;-70
2023/12/20 06:12:08;;;;;;;20.35;4.22;;;5.60;96.40;;;;;;5004189;28;20034;-71
2023/12/20 06:14:34;;;;;;;19.60;4.38;;;5.60;96.30;;;;;;5005498;28;20049;-72
2023/12/20 06:17:01;;;;;;;17.10;4.78;;;5.60;96.40;;;;;;5007679;28;20069;-72
2023/12/20 06:19:27;;;;;;;18.60;4.22;;;5.50;96.40;;;;;;5006681;28;20467;-72
2023/12/20 06:21:52;;;;;;;15.45;4.15;;;5.50;96.50;;;;;;5001915;28;20054;-71
2023/12/20 06:24:18;;;;;;;14.30;4.28;;;5.50;96.50;;;;;;5004547;28;20026;-71
2023/12/20 06:26:44;;;;;;;23.90;5.05;;;5.50;96.50;;;;;;5005038;28;20058;-72
2023/12/20 06:29:09;;;;;;;19.60;4.60;;;5.60;96.50;;;;;;5004595;28;20113;-71
2023/12/20 06:31:35;;;;;;;17.63;4.43;;;5.50;96.50;;;;;;4986529;28;20042;-72
2023/12/20 06:34:01;;;;;;;18.23;5.20;;;5.50;96.50;;;;;;5004877;28;20037;-71
2023/12/20 06:36:27;;;;;;;18.80;4.10;;;5.60;96.50;;;;;;5004701;28;20556;-71
2023/12/20 06:38:53;;;;;;;23.00;5.57;;;5.60;96.50;;;;;;5006941;28;20042;-70
2023/12/20 06:41:19;;;;;;;21.05;5.25;;;5.60;96.40;;;;;;5003940;28;20107;-70
2023/12/20 06:43:44;;;;;;;18.70;4.53;;;5.60;96.40;;;;;;4987318;28;20648;-70
2023/12/20 06:46:10;;;;;;;18.77;5.43;;;5.60;96.40;;;;;;5005359;28;20490;-72
2023/12/20 06:48:36;;;;;;;15.18;4.55;;;5.60;96.30;;;;;;5006168;28;20113;-70
2023/12/20 06:51:02;;;;;;;24.88;4.40;;;5.60;96.30;;;;;;5000892;28;20555;-71
2023/12/20 06:53:27;;;;;;;18.70;4.72;;;5.60;96.30;;;;;;4983699;28;21012;-71
2023/12/20 06:55:56;;;;;;;20.67;4.32;;;5.60;96.30;;;;;;5011347;28;20505;-71
2023/12/20 06:58:22;;;;;;;23.00;4.63;;;5.60;96.30;;;;;;5004053;28;20421;-71
2023/12/20 07:00:48;;;;;;;18.65;3.95;;;5.60;96.30;;;;;;5001210;28;20038;-70
2023/12/20 07:03:13;;;;;;;16.13;4.30;;;5.50;96.20;;;;;;4987305;28;20021;-71
2023/12/20 07:05:40;;;;;;;19.13;4.43;;;5.50;96.30;;;;;;4990232;28;20038;-71
2023/12/20 07:08:06;;;;;;;12.63;4.10;;;5.50;96.40;;;;;;5004273;28;20026;-70
2023/12/20 07:10:32;;;;;;;19.50;5.40;;;5.50;96.30;;;;;;5005531;28;20050;-71
2023/12/20 07:12:57;;;;;;;20.75;5.07;;;5.60;96.40;;;;;;5004655;28;20045;-71
2023/12/20 07:15:23;;;;;;;20.42;5.00;;;5.50;96.40;;;;;;5002046;28;20045;-70
2023/12/20 07:17:49;;;;;;;19.83;5.10;;;5.50;96.40;;;;;;4997109;28;20390;-71
2023/12/20 07:20:15;;;;;;;24.77;7.97;;;5.50;96.40;;;;;;5000306;28;20051;-72
2023/12/20 07:22:40;;;;;;;18.90;5.50;;;5.50;96.30;;;;;;4998273;28;20058;-70
2023/12/20 07:25:07;;;;;;;16.88;4.68;;;5.50;96.30;;;;;;4987860;28;20474;-72
2023/12/20 07:27:33;;;;;;;20.88;4.75;;;5.50;96.30;;;;;;5006261;28;20030;-71
2023/12/20 07:29:58;;;;;;;20.63;5.45;;;5.40;96.40;;;;;;5000381;28;20084;-71
2023/12/20 07:32:24;;;;;;;20.98;5.10;;;5.50;96.40;;;;;;5009240;28;20054;-71
2023/12/20 07:34:50;;;;;;;25.85;5.18;;;5.40;96.30;;;;;;4993742;28;20367;-72
2023/12/20 07:37:16;;;;;;;16.67;4.65;;;5.50;96.40;;;;;;5003336;28;20112;-70
2023/12/20 07:39:41;;;;;;;19.48;4.88;;;5.50;96.50;;;;;;4984635;28;20518;-71
2023/12/20 07:42:08;;;;;;;18.45;4.50;;;5.50;96.30;;;;;;5005284;28;20209;-72
2023/12/20 07:44:35;;;;;;;18.20;5.93;;;5.50;96.30;;;;;;4997393;28;20029;-71
2023/12/20 07:47:01;;;;;;;17.05;4.43;;;5.40;96.40;;;;;;5000705;28;20045;-71
2023/12/20 07:49:30;;;;;;;18.25;5.20;;;5.40;96.40;;;;;;5003246;28;20029;-71
2023/12/20 07:51:55;;;;;;;19.17;5.72;;;5.40;96.50;;;;;;4986469;28;20068;-71
2023/12/20 07:54:21;;;;;;;19.20;5.13;;;5.50;96.40;;;;;;4998151;28;20482;-71
2023/12/20 07:56:47;;;;;;;21.55;5.65;;;5.40;96.40;;;;;;4990836;28;20033;-72
2023/12/20 07:59:12;;;;;;;19.83;5.03;;;5.50;96.50;;;;;;4986650;28;20048;-71
2023/12/20 08:01:38;;;;;;;16.90;5.15;;;5.40;96.40;;;;;;5000991;28;20087;-72
2023/12/20 08:04:04;;;;;;;18.58;4.72;;;5.50;96.50;;;;;;4988833;28;20037;-72
2023/12/20 08:06:29;;;;;;;25.73;5.53;;;5.50;96.40;;;;;;4984001;28;20041;-71
2023/12/20 08:08:55;;;;;;;16.58;5.72;;;5.50;96.40;;;;;;5004691;28;20454;-72
2023/12/20 08:11:21;;;;;;;18.05;5.07;;;5.50;96.40;;;;;;5002769;28;20030;-71
2023/12/20 08:13:46;;;;;;;18.17;5.38;;;5.60;96.40;;;;;;4984956;28;20030;-71
2023/12/20 08:16:13;;;;;;;17.27;5.32;;;5.60;96.40;;;;;;4998805;28;20486;-72
2023/12/20 08:18:39;;;;;;;19.23;5.05;;;5.60;96.30;;;;;;5004551;28;20029;-72
2023/12/20 08:21:07;;;;;;;17.08;5.05;;;5.60;96.10;;;;;;5004299;28;20045;-71
2023/12/20 08:23:33;;;;;;;17.52;5.28;;;5.60;96.10;;;;;;5002636;28;20061;-71
2023/12/20 08:26:03;;;;;;;17.50;5.60;;;5.60;96.10;;;;;;4987280;28;20112;-70
2023/12/20 08:28:28;;;;;;;17.92;5.50;;;5.60;96.00;;;;;;5002579;28;20487;-72
2023/12/20 08:30:54;;;;;;;20.15;5.28;;;5.60;96.00;;;;;;4992920;28;20067;-71
2023/12/20 08:33:20;;;;;;;20.35;4.93;;;5.60;96.00;;;;;;5005650;28;20560;-70
2023/12/20 08:35:46;;;;;;;23.38;6.53;;;5.60;95.90;;;;;;5002151;28;20038;-71
2023/12/20 08:38:11;;;;;;;20.60;5.72;;;5.60;95.80;;;;;;4992822;28;20542;-71
2023/12/20 08:40:37;;;;;;;20.45;5.38;;;5.70;95.70;;;;;;4995126;28;20070;-71
2023/12/20 08:43:03;;;;;;;20.33;6.03;;;5.70;95.60;;;;;;4982664;28;20070;-72
2023/12/20 08:45:29;;;;;;;20.33;5.63;;;5.80;95.60;;;;;;4997979;28;20069;-70
2023/12/20 08:47:54;;;;;;;19.17;5.60;;;5.90;95.50;;;;;;4999844;28;20038;-71
2023/12/20 08:50:20;;;;;;;19.38;5.47;;;6.00;95.30;;;;;;4986287;28;20819;-70
2023/12/20 08:52:46;;;;;;;16.60;4.63;;;6.10;95.20;;;;;;5002005;28;20502;-71
2023/12/20 08:55:12;;;;;;;22.45;5.68;;;6.20;94.90;;;;;;5000024;28;20041;-71
2023/12/20 08:57:38;;;;;;;17.40;4.72;;;6.30;94.80;;;;;;5001593;28;20038;-71
2023/12/20 09:00:04;;;;;;;17.23;4.88;;;6.30;94.60;;;;;;5003716;28;20456;-71
2023/12/20 09:02:30;;;;;;;18.45;5.50;;;6.40;94.40;;;;;;5006414;28;20030;-71
2023/12/20 09:04:56;;;;;;;17.23;5.85;;;6.40;94.50;;;;;;4998712;28;20038;-70
2023/12/20 09:07:23;;;;;;;27.95;5.28;;;6.40;94.50;;;;;;4998430;28;20883;-70
2023/12/20 09:09:48;;;;;;;18.45;4.43;;;6.40;94.50;;;;;;4999488;28;20049;-70
2023/12/20 09:12:14;;;;;;;18.35;4.65;;;6.50;94.40;;;;;;5000752;28;20041;-70
2023/12/20 09:14:40;;;;;;;14.10;4.78;;;6.60;94.50;;;;;;5003806;28;20548;-70
2023/12/20 09:17:08;;;;;;;15.18;4.65;;;6.60;94.40;;;;;;5006204;28;20170;-70
2023/12/20 09:19:34;;;;;;;18.65;4.45;;;6.70;94.30;;;;;;5002709;28;20045;-72
2023/12/20 09:22:01;;;;;;;14.65;4.57;;;6.70;94.20;;;;;;5005106;28;20054;-70
2023/12/20 09:24:26;;;;;;;18.38;5.30;;;6.70;94.20;;;;;;4997626;28;20107;-72
2023/12/20 09:26:52;;;;;;;16.75;5.00;;;6.80;94.10;;;;;;4996919;28;20065;-72
2023/12/20 09:29:18;;;;;;;19.65;4.50;;;6.90;94.00;;;;;;5002539;28;20623;-71
2023/12/20 09:31:46;;;;;;;25.40;9.45;;;6.90;93.90;;;;;;5007563;28;20042;-71
2023/12/20 09:34:12;;;;;;;17.65;4.47;;;6.90;94.00;;;;;;5003227;28;20026;-69
2023/12/20 09:36:40;;;;;;;18.40;5.43;;;7.00;93.90;;;;;;4998880;28;20390;-68
2023/12/20 09:39:06;;;;;;;24.30;5.93;;;7.10;93.70;;;;;;4986607;28;20046;-68
2023/12/20 09:41:42;;;;;;;16.50;4.88;;;7.20;93.70;;;;;;5004789;28;20041;-69
2023/12/20 09:44:11;;;;;;;17.42;3.88;;;7.20;93.60;;;;;;4989450;28;20422;-69
2023/12/20 09:46:40;;;;;;;14.38;4.00;;;7.20;93.30;;;;;;5008390;28;20037;-68
2023/12/20 09:49:06;;;;;;;19.05;4.97;;;7.30;93.10;;;;;;5006974;28;20045;-71
2023/12/20 09:51:32;;;;;;;14.23;3.90;;;7.30;93.10;;;;;;5002458;28;20069;-68
2023/12/20 09:54:00;;;;;;;15.82;4.43;;;7.30;93.10;;;;;;5003922;28;20030;-68
2023/12/20 09:56:26;;;;;;;20.85;4.88;;;7.40;93.20;;;;;;5003632;28;20038;-69
2023/12/20 09:58:51;;;;;;;17.25;3.58;;;7.40;93.30;;;;;;5001701;28;20034;-69
2023/12/20 10:01:18;;;;;;;18.38;4.43;;;7.50;93.30;;;;;;5005376;28;20041;-68
2023/12/20 10:03:44;;;;;;;18.77;4.47;;;7.50;93.10;;;;;;5006815;28;20049;-69
2023/12/20 10:06:10;;;;;;;16.92;3.95;;;7.50;93.20;;;;;;4996017;28;20033;-68
2023/12/20 10:08:36;;;;;;;19.60;4.05;;;7.60;93.20;;;;;;4989751;28;20485;-68
2023/12/20 10:11:03;;;;;;;20.75;3.95;;;7.60;93.00;;;;;;4997970;28;20030;-69
2023/12/20 10:13:29;;;;;;;16.90;4.32;;;7.70;93.10;;;;;;4990003;28;20168;-69
2023/12/20 10:15:55;;;;;;;20.73;4.60;;;7.70;93.00;;;;;;5011648;28;20088;-68
2023/12/20 10:18:21;;;;;;;18.67;4.80;;;7.70;93.00;;;;;;5002354;28;20022;-69
2023/12/20 10:20:47;;;;;;;18.45;5.00;;;7.80;92.80;;;;;;5004122;28;20034;-69
2023/12/20 10:23:14;;;;;;;18.90;4.45;;;7.80;92.60;;;;;;5007988;28;20034;-69
2023/12/20 10:25:41;;;;;;;22.55;4.65;;;7.90;92.60;;;;;;5007915;28;20030;-71
2023/12/20 10:28:23;;;;;;;13.20;4.00;;;7.90;92.60;;;;;;5006054;28;20134;-70
2023/12/20 10:30:49;;;;;;;13.57;3.72;;;8.00;92.60;;;;;;5011225;28;20041;-69
2023/12/20 10:33:26;;;;;;;15.35;3.97;;;8.10;92.40;;;;;;5004302;28;20496;-69
2023/12/20 10:35:53;;;;;;;18.85;4.20;;;8.10;92.30;;;;;;5000727;28;20475;-69
2023/12/20 10:38:19;;;;;;;17.25;4.03;;;8.10;92.20;;;;;;5010829;28;20032;-70
2023/12/20 10:40:48;;;;;;;17.15;4.50;;;8.10;92.40;;;;;;5009214;28;20042;-70
2023/12/20 10:43:15;;;;;;;14.95;4.47;;;8.10;92.40;;;;;;5006677;28;20030;-69
2023/12/20 10:45:43;;;;;;;17.85;4.07;;;8.20;92.30;;;;;;5013877;28;20120;-69
2023/12/20 10:48:11;;;;;;;18.33;4.25;;;8.20;92.30;;;;;;5007184;28;20025;-69
2023/12/20 10:50:40;;;;;;;13.75;3.78;;;8.20;92.30;;;;;;5004179;28;20124;-69
2023/12/20 10:53:07;;;;;;;15.98;4.20;;;8.20;92.50;;;;;;5008305;28;20049;-68
2023/12/20 10:55:34;;;;;;;17.35;4.88;;;8.30;92.40;;;;;;5007776;28;20119;-68
2023/12/20 10:58:09;;;;;;;13.13;3.92;;;8.30;92.40;;;;;;5004960;28;20036;-69
2023/12/20 11:00:41;;;;;;;21.63;4.20;;;8.30;92.30;;;;;;5009926;28;20080;-67
2023/12/20 11:03:09;;;;;;;14.23;3.72;;;8.40;92.30;;;;;;5002821;28;21260;-66
2023/12/20 11:05:59;;;;;;;15.32;4.57;;;8.40;92.30;;;;;;5002333;28;20064;-68
2023/12/20 11:08:33;;;;;;;19.15;6.60;;;8.40;92.20;;;;;;4992904;28;20073;-68
2023/12/20 11:11:23;;;;;;;15.07;4.18;;;8.40;92.00;;;;;;5005993;28;20048;-68
2023/12/20 11:13:58;;;;;;;15.15;3.92;;;8.50;92.00;;;;;;5004753;28;20014;-67
2023/12/20 11:16:25;;;;;;;16.95;4.10;;;8.60;91.80;;;;;;5009780;28;20029;-67
2023/12/20 11:18:51;;;;;;;13.15;4.07;;;8.60;91.70;;;;;;5000721;28;20037;-67
2023/12/20 11:21:16;;;;;;;13.30;4.20;;;8.60;91.70;;;;;;5005369;28;20029;-68
2023/12/20 11:23:42;;;;;;;14.38;4.03;;;8.60;91.50;;;;;;5004183;28;20541;-68
2023/12/20 11:26:08;;;;;;;14.90;4.13;;;8.70;91.20;;;;;;5004700;28;20040;-68
2023/12/20 11:28:34;;;;;;;14.38;3.88;;;8.70;91.10;;;;;;5007600;28;20029;-68
2023/12/20 11:31:02;;;;;;;15.77;3.88;;;8.70;91.30;;;;;;5001375;28;20589;-68
2023/12/20 11:33:36;;;;;;;15.55;3.65;;;8.70;91.50;;;;;;5005634;28;20543;-68
2023/12/20 11:36:02;;;;;;;13.27;4.18;;;8.70;91.30;;;;;;5002688;28;20070;-68
2023/12/20 11:38:36;;;;;;;18.02;4.45;;;8.70;91.20;;;;;;4994041;28;20887;-68
2023/12/20 11:41:05;;;;;;;14.20;3.60;;;8.70;91.30;;;;;;5003284;28;20092;-67
2023/12/20 11:43:38;;;;;;;19.95;5.00;;;8.80;91.30;;;;;;5006586;28;20026;-69
2023/12/20 11:46:09;;;;;;;23.17;5.13;;;8.80;91.40;;;;;;5006279;28;20060;-67
2023/12/20 11:48:37;;;;;;;11.63;3.40;;;8.70;91.50;;;;;;5005758;28;20132;-71
2023/12/20 11:51:09;;;;;;;13.48;4.45;;;8.80;91.60;;;;;;4987494;28;20045;-69
2023/12/20 11:53:34;;;;;;;13.80;4.10;;;8.90;91.30;;;;;;5004795;28;20092;-68
2023/12/20 11:56:02;;;;;;;19.35;3.88;;;9.10;91.10;;;;;;5005167;28;20371;-68
2023/12/20 11:58:28;;;;;;;14.27;4.75;;;9.10;90.80;;;;;;5002960;28;20029;-69
2023/12/20 12:00:55;;;;;;;15.85;3.83;;;9.20;90.70;;;;;;4987898;28;20304;-68
2023/12/20 12:03:21;;;;;;;20.10;4.32;;;9.20;90.50;;;;;;5002528;28;20030;-69
2023/12/20 12:05:50;;;;;;;18.50;4.15;;;9.10;90.70;;;;;;5003722;28;20054;-69
2023/12/20 12:08:17;;;;;;;14.25;3.30;;;9.20;90.80;;;;;;5004370;28;20446;-69
2023/12/20 12:10:44;;;;;;;16.92;3.67;;;9.20;90.70;;;;;;5002764;28;20041;-69
2023/12/20 12:13:11;;;;;;;12.70;3.30;;;9.30;90.70;;;;;;5004133;28;20613;-69
2023/12/20 12:15:37;;;;;;;15.45;4.05;;;9.30;90.60;;;;;;5005627;28;20026;-69
2023/12/20 12:18:03;;;;;;;14.43;3.80;;;9.30;90.70;;;;;;5007674;28;20029;-69
2023/12/20 12:20:29;;;;;;;15.35;4.18;;;9.30;90.80;;;;;;5002277;28;20067;-68
2023/12/20 12:23:06;;;;;;;12.40;3.60;;;9.40;90.80;;;;;;5007839;28;20050;-68
2023/12/20 12:25:35;;;;;;;14.68;4.35;;;9.40;90.90;;;;;;5002157;28;20037;-68
2023/12/20 12:28:01;;;;;;;14.25;3.38;;;9.40;90.70;;;;;;5002165;28;20101;-68
2023/12/20 12:30:27;;;;;;;21.10;4.03;;;9.40;90.60;;;;;;5004276;28;20479;-69
2023/12/20 12:32:53;;;;;;;15.48;3.58;;;9.50;90.60;;;;;;5006031;28;20047;-68
2023/12/20 12:35:20;;;;;;;13.20;3.70;;;9.50;90.80;;;;;;5006116;28;20069;-68
2023/12/20 12:37:46;;;;;;;17.30;4.38;;;9.50;90.80;;;;;;4999400;28;20513;-69
2023/12/20 12:40:13;;;;;;;20.73;4.38;;;9.60;90.50;;;;;;4984980;28;20073;-68
2023/12/20 12:42:40;;;;;;;18.70;4.78;;;9.60;90.30;;;;;;5006514;28;20467;-68
2023/12/20 12:45:07;;;;;;;14.30;3.08;;;9.60;90.30;;;;;;4999314;28;20070;-69